Time;durP1;ratioP1;P1;durP2;ratioP2;P2;SDS_P1;SDS_P2;PMS_P1;PMS_P2;Temp;Humidity;BMP_temperature;BMP_pressure;BME280_temperature;BME280_humidity;BME280_pressure;Samples;Min_cycle;Max_cycle;Signal;HPM_P1;HPM_P2
2021/04/27 00:01:36;;;;;;;8.07;4.47;;;8.70;1.00;;;;;;5052150;28;20540;-80
2021/04/27 00:04:02;;;;;;;10.13;5.27;;;8.60;1.00;;;;;;5052401;28;20610;-79
2021/04/27 00:06:28;;;;;;;10.67;5.23;;;8.60;1.00;;;;;;5050872;28;20176;-80
2021/04/27 00:08:54;;;;;;;9.13;5.90;;;8.60;1.00;;;;;;5052089;28;20169;-78
2021/04/27 00:11:20;;;;;;;10.40;5.60;;;8.60;1.00;;;;;;5050945;28;20177;-80
2021/04/27 00:13:45;;;;;;;8.10;5.03;;;8.50;1.00;;;;;;5052598;28;20165;-80
2021/04/27 00:16:11;;;;;;;14.80;5.33;;;8.50;1.00;;;;;;5051899;28;20291;-78
2021/04/27 00:18:37;;;;;;;11.30;5.07;;;8.50;1.00;;;;;;5051768;28;20702;-79
2021/04/27 00:21:03;;;;;;;10.50;5.17;;;8.50;1.00;;;;;;5051971;28;20201;-79
2021/04/27 00:23:45;;;;;;;6.83;5.00;;;8.50;1.00;;;;;;5052223;28;20644;-81
2021/04/27 00:26:11;;;;;;;8.40;4.67;;;8.40;1.00;;;;;;5050819;28;20762;-81
2021/04/27 00:28:37;;;;;;;7.77;5.00;;;8.40;1.00;;;;;;5051754;28;20267;-78
2021/04/27 00:31:02;;;;;;;10.17;4.97;;;8.40;99.90;;;;;;5052529;28;20625;-79
2021/04/27 00:33:28;;;;;;;8.30;5.00;;;8.50;99.90;;;;;;5052520;28;20506;-79
2021/04/27 00:35:53;;;;;;;8.10;5.30;;;8.50;99.90;;;;;;5051964;28;20266;-78
2021/04/27 00:38:19;;;;;;;10.23;5.07;;;8.50;99.90;;;;;;5051609;28;20172;-79
2021/04/27 00:40:45;;;;;;;9.93;5.13;;;8.40;99.90;;;;;;5051055;28;20169;-79
2021/04/27 00:43:11;;;;;;;8.03;4.50;;;8.40;99.90;;;;;;5051369;28;20176;-78
2021/04/27 00:45:37;;;;;;;10.23;4.93;;;8.40;99.90;;;;;;5052332;28;20173;-76
2021/04/27 00:48:04;;;;;;;7.83;4.97;;;8.30;99.90;;;;;;5050600;28;20165;-78
2021/04/27 00:50:36;;;;;;;7.57;5.00;;;8.30;99.90;;;;;;5051611;28;20173;-76
2021/04/27 00:53:04;;;;;;;7.63;4.70;;;8.30;99.90;;;;;;5050991;28;20165;-78
2021/04/27 00:55:30;;;;;;;7.97;4.77;;;8.20;99.90;;;;;;5051975;28;20265;-79
2021/04/27 00:57:56;;;;;;;8.37;5.10;;;8.20;99.90;;;;;;5051424;28;20173;-79
2021/04/27 01:00:24;;;;;;;8.20;5.40;;;8.20;99.90;;;;;;5051123;28;20165;-77
2021/04/27 01:02:51;;;;;;;7.60;4.53;;;8.10;99.90;;;;;;5051780;28;20169;-79
2021/04/27 01:05:19;;;;;;;8.97;4.87;;;8.20;99.90;;;;;;5051817;28;20170;-79
2021/04/27 01:08:08;;;;;;;6.73;4.53;;;8.10;1.00;;;;;;5052247;28;20322;-78
2021/04/27 01:10:57;;;;;;;8.57;4.40;;;8.10;1.00;;;;;;5051479;28;20649;-78
2021/04/27 01:13:54;;;;;;;7.47;4.53;;;8.10;99.90;;;;;;5052195;28;20173;-76
2021/04/27 01:16:21;;;;;;;10.50;5.20;;;8.00;1.00;;;;;;5051671;28;20204;-77
2021/04/27 01:18:52;;;;;;;7.43;4.67;;;7.90;1.00;;;;;;5053550;28;20176;-79
2021/04/27 01:21:21;;;;;;;8.27;4.80;;;8.00;1.00;;;;;;5054447;28;20192;-80
2021/04/27 01:24:22;;;;;;;11.37;5.27;;;8.00;1.00;;;;;;5055315;28;20165;-77
2021/04/27 01:26:52;;;;;;;7.13;4.40;;;7.90;1.00;;;;;;5055064;28;20244;-78
2021/04/27 01:29:21;;;;;;;9.10;4.60;;;7.90;1.00;;;;;;5054152;28;20552;-78
2021/04/27 01:31:48;;;;;;;6.87;4.83;;;7.90;1.00;;;;;;5055608;28;20177;-80
2021/04/27 01:34:24;;;;;;;7.40;5.30;;;7.80;1.00;;;;;;5055185;28;20196;-78
2021/04/27 01:36:52;;;;;;;11.43;5.17;;;7.80;1.00;;;;;;5055632;28;20219;-80
2021/04/27 01:39:19;;;;;;;12.83;5.47;;;7.80;1.00;;;;;;5054517;28;20168;-78
2021/04/27 01:41:47;;;;;;;7.87;4.73;;;7.70;1.00;;;;;;5054122;28;20241;-78
2021/04/27 01:44:13;;;;;;;9.00;4.87;;;7.70;1.00;;;;;;5054900;28;20246;-78
2021/04/27 01:46:41;;;;;;;8.30;4.70;;;7.70;1.00;;;;;;5055113;28;20165;-78
2021/04/27 01:49:07;;;;;;;8.67;4.90;;;7.80;1.00;;;;;;5053616;28;20203;-79
2021/04/27 01:51:33;;;;;;;8.50;5.50;;;7.70;1.00;;;;;;5055293;28;20169;-77
2021/04/27 01:53:59;;;;;;;9.53;5.07;;;7.70;1.00;;;;;;5053820;28;20536;-77
2021/04/27 01:56:24;;;;;;;10.97;5.50;;;7.70;1.00;;;;;;5055103;28;20180;-78
2021/04/27 01:58:51;;;;;;;10.00;6.23;;;7.70;1.00;;;;;;5055044;28;20207;-78
2021/04/27 02:01:17;;;;;;;6.60;4.20;;;7.70;1.00;;;;;;5053803;28;20696;-77
2021/04/27 02:03:48;;;;;;;8.27;5.13;;;7.70;1.00;;;;;;5054775;28;20188;-79
2021/04/27 02:06:14;;;;;;;7.73;5.30;;;7.70;1.00;;;;;;5055309;28;20169;-77
2021/04/27 02:08:47;;;;;;;9.20;4.93;;;7.70;1.00;;;;;;5053354;28;20180;-78
2021/04/27 02:11:12;;;;;;;10.20;4.77;;;7.70;1.00;;;;;;5054140;28;20184;-79
2021/04/27 02:13:39;;;;;;;8.37;4.73;;;7.70;1.00;;;;;;5052701;28;20181;-79
2021/04/27 02:16:05;;;;;;;9.73;4.83;;;7.60;1.00;;;;;;5054978;28;20622;-79
2021/04/27 02:18:38;;;;;;;7.00;4.40;;;7.70;1.00;;;;;;5053659;28;20161;-77
2021/04/27 02:21:06;;;;;;;8.10;4.73;;;7.50;1.00;;;;;;5054543;28;20189;-78
2021/04/27 02:23:33;;;;;;;8.63;5.50;;;7.40;1.00;;;;;;5053998;28;20169;-78
2021/04/27 02:25:59;;;;;;;7.37;4.80;;;7.40;1.00;;;;;;5054670;28;20203;-76
2021/04/27 02:28:27;;;;;;;6.73;4.60;;;7.50;1.00;;;;;;5054379;28;20231;-82
2021/04/27 02:30:53;;;;;;;12.60;5.70;;;7.40;1.00;;;;;;5052894;28;20713;-79
2021/04/27 02:33:20;;;;;;;7.67;4.57;;;7.40;1.00;;;;;;5053786;28;20173;-79
2021/04/27 02:35:47;;;;;;;10.10;5.13;;;7.50;1.00;;;;;;5054294;28;20235;-78
2021/04/27 02:38:17;;;;;;;7.20;5.00;;;7.40;1.00;;;;;;5054098;28;20249;-77
2021/04/27 02:40:43;;;;;;;9.23;4.67;;;7.40;1.00;;;;;;5051964;28;20176;-78
2021/04/27 02:43:08;;;;;;;9.00;4.87;;;7.30;1.00;;;;;;5052678;28;20174;-78
2021/04/27 02:45:34;;;;;;;9.73;5.23;;;7.40;1.00;;;;;;5053179;28;20543;-80
2021/04/27 02:48:05;;;;;;;10.23;4.57;;;7.20;1.00;;;;;;5054130;28;20243;-79
2021/04/27 02:50:31;;;;;;;6.00;4.40;;;7.30;1.00;;;;;;5053260;28;20169;-79
2021/04/27 02:52:56;;;;;;;7.67;5.00;;;7.30;1.00;;;;;;5053951;28;20158;-79
2021/04/27 02:55:22;;;;;;;10.67;5.17;;;7.30;1.00;;;;;;5053533;28;20213;-79
2021/04/27 02:57:47;;;;;;;7.70;4.63;;;7.30;1.00;;;;;;5052999;28;20574;-80
2021/04/27 03:00:14;;;;;;;7.90;4.80;;;7.20;1.00;;;;;;5051250;28;20195;-78
2021/04/27 03:02:39;;;;;;;8.47;5.17;;;7.30;1.00;;;;;;5053543;28;20633;-79
2021/04/27 03:05:05;;;;;;;13.00;5.07;;;7.30;1.00;;;;;;5054107;28;20168;-79
2021/04/27 03:07:31;;;;;;;11.90;5.60;;;7.30;1.00;;;;;;5054289;28;20165;-78
2021/04/27 03:09:57;;;;;;;6.90;4.83;;;7.30;1.00;;;;;;5053692;28;20227;-77
2021/04/27 03:12:22;;;;;;;8.90;5.27;;;7.30;1.00;;;;;;5054478;28;20229;-78
2021/04/27 03:14:48;;;;;;;7.87;4.70;;;7.30;1.00;;;;;;5052382;28;20624;-79
2021/04/27 03:17:14;;;;;;;10.20;5.03;;;7.30;1.00;;;;;;5053373;28;20165;-79
2021/04/27 03:19:39;;;;;;;12.20;5.30;;;7.20;1.00;;;;;;5050627;28;20193;-78
2021/04/27 03:22:05;;;;;;;10.03;5.37;;;7.10;1.00;;;;;;5051770;28;20177;-80
2021/04/27 03:24:31;;;;;;;10.03;5.70;;;7.10;1.00;;;;;;5053292;28;20172;-80
2021/04/27 03:26:56;;;;;;;6.80;4.50;;;7.10;1.00;;;;;;5053465;28;20708;-77
2021/04/27 03:29:22;;;;;;;9.77;5.00;;;7.10;1.00;;;;;;5053092;28;20637;-78
2021/04/27 03:31:47;;;;;;;10.27;5.27;;;7.00;1.00;;;;;;5052440;28;20193;-79
2021/04/27 03:34:13;;;;;;;10.03;5.20;;;6.90;1.00;;;;;;5051308;28;20172;-79
2021/04/27 03:36:39;;;;;;;7.80;5.10;;;6.90;1.00;;;;;;5052554;28;20172;-77
2021/04/27 03:39:05;;;;;;;9.70;5.20;;;6.90;1.00;;;;;;5064253;28;20188;-78
2021/04/27 03:41:30;;;;;;;10.40;5.53;;;6.80;1.00;;;;;;5052445;28;20622;-79
2021/04/27 03:43:56;;;;;;;7.03;5.23;;;6.80;1.00;;;;;;5052186;28;20575;-78
2021/04/27 03:46:21;;;;;;;10.63;5.03;;;6.80;1.00;;;;;;5052587;28;20704;-78
2021/04/27 03:48:47;;;;;;;9.63;5.10;;;6.90;1.00;;;;;;5050945;28;20167;-79
2021/04/27 03:51:13;;;;;;;8.53;5.03;;;6.90;1.00;;;;;;5053028;28;20223;-80
2021/04/27 03:53:38;;;;;;;10.17;5.20;;;6.80;1.00;;;;;;5052823;28;20637;-80
2021/04/27 03:56:04;;;;;;;9.60;5.43;;;6.90;1.00;;;;;;5051915;28;20720;-77
2021/04/27 03:58:30;;;;;;;9.70;5.57;;;6.80;1.00;;;;;;5053001;28;20590;-80
2021/04/27 04:00:56;;;;;;;11.63;5.20;;;6.80;1.00;;;;;;5052487;28;20177;-78
2021/04/27 04:03:21;;;;;;;8.93;5.50;;;6.70;1.00;;;;;;5052368;28;20227;-79
2021/04/27 04:05:48;;;;;;;7.33;5.07;;;6.70;1.00;;;;;;5051747;28;20176;-78
2021/04/27 04:08:13;;;;;;;8.10;5.30;;;6.70;1.00;;;;;;5050997;28;20247;-77
2021/04/27 04:10:39;;;;;;;9.50;5.40;;;6.70;1.00;;;;;;5051491;28;20248;-77
2021/04/27 04:13:05;;;;;;;11.90;5.50;;;6.70;1.00;;;;;;5053043;28;20173;-79
2021/04/27 04:15:30;;;;;;;11.53;5.63;;;6.70;1.00;;;;;;5052195;28;20208;-78
2021/04/27 04:17:56;;;;;;;8.37;5.23;;;6.70;1.00;;;;;;5051403;28;20169;-78
2021/04/27 04:20:25;;;;;;;10.17;5.77;;;6.70;1.00;;;;;;5052054;28;20193;-79
2021/04/27 04:22:51;;;;;;;12.53;5.73;;;6.60;1.00;;;;;;5052059;28;20165;-79
2021/04/27 04:25:18;;;;;;;10.37;5.30;;;6.60;1.00;;;;;;5051774;28;20195;-81
2021/04/27 04:27:45;;;;;;;7.03;5.47;;;6.60;1.00;;;;;;5052382;28;20179;-79
2021/04/27 04:30:19;;;;;;;8.97;5.20;;;6.60;1.00;;;;;;5052319;28;20176;-80
2021/04/27 04:32:45;;;;;;;9.27;5.03;;;6.50;1.00;;;;;;5052325;28;20226;-78
2021/04/27 04:35:12;;;;;;;9.40;5.50;;;6.60;1.00;;;;;;5053486;28;20588;-80
2021/04/27 04:37:38;;;;;;;11.30;5.87;;;6.60;1.00;;;;;;5053169;28;20172;-80
2021/04/27 04:40:06;;;;;;;12.57;6.10;;;6.60;1.00;;;;;;5052819;28;20172;-77
2021/04/27 04:42:31;;;;;;;10.63;5.93;;;6.50;1.00;;;;;;5052296;28;20169;-77
2021/04/27 04:44:57;;;;;;;7.30;5.37;;;6.60;1.00;;;;;;5052759;28;20179;-80
2021/04/27 04:47:23;;;;;;;8.80;5.73;;;6.60;1.00;;;;;;5052125;28;20173;-79
2021/04/27 04:49:48;;;;;;;11.97;5.73;;;6.70;1.00;;;;;;5051490;28;20185;-79
2021/04/27 04:52:14;;;;;;;11.53;5.90;;;6.70;1.00;;;;;;5052296;28;20183;-79
2021/04/27 04:54:42;;;;;;;11.43;6.27;;;6.70;1.00;;;;;;5055023;28;20569;-77
2021/04/27 04:57:08;;;;;;;11.37;6.10;;;6.80;1.00;;;;;;5055591;28;20515;-78
2021/04/27 04:59:34;;;;;;;11.80;8.03;;;7.00;1.00;;;;;;5055357;28;20264;-78
2021/04/27 05:01:59;;;;;;;11.37;6.50;;;6.90;1.00;;;;;;5055978;28;20279;-79
2021/04/27 05:04:25;;;;;;;10.30;6.30;;;6.90;1.00;;;;;;5055730;28;20188;-78
2021/04/27 05:06:51;;;;;;;13.20;6.80;;;6.90;1.00;;;;;;5055824;28;20177;-80
2021/04/27 05:09:18;;;;;;;10.90;5.93;;;6.90;1.00;;;;;;5055801;28;20226;-77
2021/04/27 05:11:44;;;;;;;14.50;6.27;;;7.00;1.00;;;;;;5055327;28;20169;-79
2021/04/27 05:14:10;;;;;;;12.80;6.50;;;7.10;1.00;;;;;;5055030;28;20209;-79
2021/04/27 05:16:35;;;;;;;11.97;6.00;;;7.10;1.00;;;;;;5054509;28;20266;-79
2021/04/27 05:19:02;;;;;;;11.00;6.53;;;7.00;1.00;;;;;;5055655;28;20177;-78
2021/04/27 05:21:28;;;;;;;12.60;5.90;;;7.10;1.00;;;;;;5054451;28;20247;-78
2021/04/27 05:23:54;;;;;;;9.53;6.27;;;7.10;1.00;;;;;;5054793;28;20176;-79
2021/04/27 05:26:19;;;;;;;11.23;6.47;;;7.10;1.00;;;;;;5054273;28;20169;-76
2021/04/27 05:28:45;;;;;;;13.47;6.40;;;7.20;1.00;;;;;;5055670;28;20181;-81
2021/04/27 05:31:11;;;;;;;11.63;6.27;;;7.20;1.00;;;;;;5055280;28;20652;-79
2021/04/27 05:33:36;;;;;;;15.43;6.60;;;7.20;1.00;;;;;;5055498;28;20169;-77
2021/04/27 05:36:04;;;;;;;13.00;6.23;;;7.20;1.00;;;;;;5055129;28;20208;-79
2021/04/27 05:38:30;;;;;;;11.70;6.33;;;7.30;1.00;;;;;;5055059;28;20173;-78
2021/04/27 05:40:55;;;;;;;13.73;6.50;;;7.30;1.00;;;;;;5053554;28;20585;-80
2021/04/27 05:43:21;;;;;;;13.80;6.47;;;7.40;1.00;;;;;;5055003;28;20173;-79
2021/04/27 05:45:47;;;;;;;14.43;6.23;;;7.50;1.00;;;;;;5055179;28;20173;-80
2021/04/27 05:48:12;;;;;;;13.90;7.00;;;7.60;1.00;;;;;;5055248;28;20177;-80
2021/04/27 05:50:39;;;;;;;10.90;7.20;;;7.60;1.00;;;;;;5054733;28;20260;-78
2021/04/27 05:53:04;;;;;;;14.83;8.40;;;7.60;1.00;;;;;;5054092;28;20170;-78
2021/04/27 05:55:30;;;;;;;10.23;6.60;;;7.70;1.00;;;;;;5054420;28;20205;-78
2021/04/27 05:57:57;;;;;;;14.13;7.07;;;7.80;1.00;;;;;;5052751;28;20177;-75
2021/04/27 06:00:23;;;;;;;15.83;6.90;;;7.80;1.00;;;;;;5053323;28;20169;-79
2021/04/27 06:02:49;;;;;;;14.27;7.37;;;7.70;1.00;;;;;;5054375;28;20593;-78
2021/04/27 06:05:15;;;;;;;15.60;7.87;;;7.80;1.00;;;;;;5054729;28;20173;-79
2021/04/27 06:07:41;;;;;;;18.40;7.17;;;7.90;1.00;;;;;;5054157;28;20205;-77
2021/04/27 06:10:08;;;;;;;16.00;7.80;;;8.00;1.00;;;;;;5053840;28;20181;-82
2021/04/27 06:12:33;;;;;;;18.23;7.00;;;8.10;1.00;;;;;;5054200;28;20680;-79
2021/04/27 06:15:00;;;;;;;8.83;6.73;;;8.00;1.00;;;;;;5053003;28;20280;-82
2021/04/27 06:17:25;;;;;;;13.93;7.20;;;7.90;1.00;;;;;;5054300;28;20169;-79
2021/04/27 06:19:51;;;;;;;13.03;7.47;;;7.80;1.00;;;;;;5053066;28;20255;-77
2021/04/27 06:22:17;;;;;;;12.47;7.07;;;7.80;1.00;;;;;;5054375;28;20644;-79
2021/04/27 06:24:43;;;;;;;14.10;7.17;;;7.80;1.00;;;;;;5053117;28;20279;-78
2021/04/27 06:27:09;;;;;;;15.77;7.77;;;7.90;1.00;;;;;;5054313;28;20195;-79
2021/04/27 06:29:35;;;;;;;16.40;7.90;;;7.80;1.00;;;;;;5053843;28;20212;-83
2021/04/27 06:32:01;;;;;;;13.80;7.43;;;7.90;1.00;;;;;;5053459;28;20209;-80
2021/04/27 06:34:26;;;;;;;15.70;7.70;;;7.90;1.00;;;;;;5052922;28;20732;-80
2021/04/27 06:36:52;;;;;;;14.07;7.03;;;7.90;1.00;;;;;;5050664;28;20227;-79
2021/04/27 06:39:18;;;;;;;14.97;7.43;;;8.10;1.00;;;;;;5052315;28;20314;-80
2021/04/27 06:41:43;;;;;;;11.17;6.97;;;8.00;1.00;;;;;;5053420;28;20648;-80
2021/04/27 06:44:09;;;;;;;15.50;7.50;;;8.10;1.00;;;;;;5052433;28;20703;-78
2021/04/27 06:46:35;;;;;;;16.97;8.00;;;8.20;1.00;;;;;;5053825;28;20677;-79
2021/04/27 06:49:02;;;;;;;10.40;6.90;;;8.30;99.90;;;;;;5054066;28;20672;-79
2021/04/27 06:51:28;;;;;;;13.83;7.53;;;8.40;99.90;;;;;;5054002;28;20169;-80
2021/04/27 06:53:54;;;;;;;12.20;7.37;;;8.30;99.90;;;;;;5053391;28;20299;-81
2021/04/27 06:56:20;;;;;;;14.43;7.27;;;8.30;99.90;;;;;;5053645;28;21174;-77
2021/04/27 06:58:45;;;;;;;12.27;7.97;;;8.20;99.90;;;;;;5053287;28;20176;-77
2021/04/27 07:01:11;;;;;;;17.40;7.50;;;8.30;1.00;;;;;;5053442;28;20192;-81
2021/04/27 07:03:37;;;;;;;15.40;9.00;;;8.50;99.90;;;;;;5053866;28;20169;-82
2021/04/27 07:06:03;;;;;;;15.60;8.00;;;8.60;99.90;;;;;;5053519;28;20203;-78
2021/04/27 07:08:30;;;;;;;13.50;8.60;;;8.90;99.90;;;;;;5052619;28;20169;-80
2021/04/27 07:10:57;;;;;;;12.53;7.90;;;8.80;99.90;;;;;;5053229;28;20176;-81
2021/04/27 07:13:27;;;;;;;13.37;7.73;;;9.00;99.90;;;;;;5053890;28;20709;-81
2021/04/27 07:15:53;;;;;;;14.40;7.03;;;9.00;1.00;;;;;;5050730;28;20205;-82
2021/04/27 07:18:19;;;;;;;13.77;8.57;;;9.10;1.00;;;;;;5053256;28;20540;-80
2021/04/27 07:20:46;;;;;;;11.70;7.47;;;9.10;1.00;;;;;;5052788;28;20807;-82
2021/04/27 07:23:11;;;;;;;10.70;7.40;;;9.30;1.00;;;;;;5052315;28;20169;-81
2021/04/27 07:25:37;;;;;;;15.80;8.67;;;9.40;99.90;;;;;;5052182;28;20195;-82
2021/04/27 07:28:04;;;;;;;13.70;7.27;;;9.40;1.00;;;;;;5052682;28;20247;-81
2021/04/27 07:30:31;;;;;;;18.10;8.57;;;9.40;73.80;;;;;;5052727;28;20242;-78
2021/04/27 07:32:57;;;;;;;16.93;8.90;;;9.40;99.90;;;;;;5075055;28;20241;-79
2021/04/27 07:35:23;;;;;;;18.00;7.93;;;9.50;72.60;;;;;;5074979;28;20636;-79
2021/04/27 07:37:48;;;;;;;16.30;8.30;;;9.50;1.00;;;;;;5091838;28;20643;-82
2021/04/27 07:40:14;;;;;;;11.20;7.73;;;9.60;1.00;;;;;;5084624;28;20942;-81
2021/04/27 07:42:40;;;;;;;12.37;7.77;;;9.70;99.90;;;;;;5072795;28;20183;-82
2021/04/27 07:45:07;;;;;;;17.77;8.33;;;9.70;99.90;;;;;;5057234;28;20259;-80
2021/04/27 07:47:33;;;;;;;15.60;8.00;;;9.70;1.00;;;;;;5052645;28;20226;-81
2021/04/27 07:49:59;;;;;;;13.57;7.43;;;9.80;1.00;;;;;;5061889;28;20181;-78
2021/04/27 07:52:26;;;;;;;14.60;7.67;;;9.90;1.00;;;;;;5070697;28;20209;-81
2021/04/27 07:54:52;;;;;;;13.53;8.47;;;10.20;1.00;;;;;;5057846;28;20216;-82
2021/04/27 07:57:19;;;;;;;15.67;8.13;;;10.40;1.00;;;;;;5072180;28;20554;-80
2021/04/27 07:59:44;;;;;;;12.20;8.33;;;10.40;99.90;;;;;;5060552;28;20194;-79
2021/04/27 08:02:10;;;;;;;15.47;7.93;;;10.30;99.90;;;;;;5072042;28;20616;-81
2021/04/27 08:04:36;;;;;;;13.53;7.60;;;10.20;1.00;;;;;;5072275;28;20176;-79
2021/04/27 08:07:01;;;;;;;15.93;8.10;;;10.20;90.70;;;;;;5071757;28;20509;-82
2021/04/27 08:09:27;;;;;;;14.47;7.60;;;10.30;99.90;;;;;;5072360;28;20507;-80
2021/04/27 08:11:53;;;;;;;15.27;7.90;;;10.40;1.00;;;;;;5070640;28;20180;-81
2021/04/27 08:14:20;;;;;;;17.40;8.40;;;10.50;99.90;;;;;;5061185;28;20291;-82
2021/04/27 08:16:46;;;;;;;15.57;8.50;;;10.50;99.90;;;;;;5072135;28;20255;-80
2021/04/27 08:19:12;;;;;;;10.93;7.90;;;10.80;99.90;;;;;;5070564;28;20266;-79
2021/04/27 08:21:38;;;;;;;12.20;8.07;;;11.00;99.90;;;;;;5071477;28;20168;-78
2021/04/27 08:24:04;;;;;;;18.93;7.80;;;11.00;99.90;;;;;;5071641;28;20187;-79
2021/04/27 08:26:30;;;;;;;16.10;8.37;;;11.10;90.10;;;;;;5071657;28;20267;-80
2021/04/27 08:28:56;;;;;;;13.37;8.57;;;11.20;99.90;;;;;;5069391;28;20628;-79
2021/04/27 08:31:22;;;;;;;16.23;8.27;;;11.30;36.80;;;;;;5075700;28;20639;-79
2021/04/27 08:33:48;;;;;;;14.13;8.30;;;11.40;99.90;;;;;;5077222;28;20221;-81
2021/04/27 08:36:14;;;;;;;14.67;8.40;;;11.50;1.00;;;;;;5072933;28;20223;-80
2021/04/27 08:38:41;;;;;;;15.57;8.40;;;11.70;1.00;;;;;;5064084;28;20253;-80
2021/04/27 08:41:06;;;;;;;15.13;8.53;;;11.80;1.00;;;;;;5056919;28;20175;-81
2021/04/27 08:43:33;;;;;;;15.50;7.93;;;11.90;99.90;;;;;;5055911;28;20172;-80
2021/04/27 08:46:01;;;;;;;12.07;7.97;;;12.00;1.00;;;;;;5069665;28;20179;-81
2021/04/27 08:48:27;;;;;;;15.27;8.30;;;12.10;99.90;;;;;;5076057;28;20172;-79
2021/04/27 08:50:53;;;;;;;12.63;8.07;;;12.10;99.90;;;;;;5073771;28;20183;-80
2021/04/27 08:53:20;;;;;;;14.30;8.50;;;12.20;99.90;;;;;;5075487;28;20168;-81
2021/04/27 08:55:46;;;;;;;13.90;8.93;;;12.30;1.00;;;;;;5075939;28;20545;-80
2021/04/27 08:58:13;;;;;;;11.17;7.80;;;12.40;1.00;;;;;;5075126;28;20160;-81
2021/04/27 09:00:41;;;;;;;15.53;8.93;;;12.40;1.00;;;;;;5069099;28;20195;-80
2021/04/27 09:03:08;;;;;;;13.27;8.43;;;12.30;1.00;;;;;;5074091;28;20164;-80
2021/04/27 09:05:36;;;;;;;12.87;8.37;;;12.30;1.00;;;;;;5074350;28;20172;-80
2021/04/27 09:08:03;;;;;;;12.80;7.43;;;12.40;99.90;;;;;;5075024;28;20632;-78
2021/04/27 09:10:38;;;;;;;10.53;7.40;;;12.30;99.90;;;;;;5075286;28;20176;-79
2021/04/27 09:13:15;;;;;;;13.27;8.07;;;12.40;99.90;;;;;;5074301;28;20171;-82
2021/04/27 09:15:51;;;;;;;16.10;7.70;;;12.50;99.90;;;;;;5075076;28;20324;-82
2021/04/27 09:18:36;;;;;;;10.93;7.23;;;12.60;99.90;;;;;;5073994;28;20618;-81
2021/04/27 09:21:07;;;;;;;16.17;7.53;;;12.60;99.90;;;;;;5075469;28;20274;-81
2021/04/27 09:23:35;;;;;;;9.70;6.93;;;12.50;99.90;;;;;;5070874;28;20175;-81
2021/04/27 09:26:14;;;;;;;11.70;7.63;;;12.50;99.90;;;;;;5061750;28;20181;-81
2021/04/27 09:28:48;;;;;;;16.33;7.50;;;12.30;99.90;;;;;;5054060;28;20183;-80
2021/04/27 09:31:21;;;;;;;11.23;7.60;;;12.40;99.90;;;;;;5055197;28;20203;-80
2021/04/27 09:33:47;;;;;;;13.57;8.00;;;12.40;99.90;;;;;;5053781;28;20207;-80
2021/04/27 09:36:24;;;;;;;14.20;8.33;;;12.60;99.90;;;;;;5058765;28;20235;-81
2021/04/27 09:38:54;;;;;;;15.37;7.77;;;12.90;99.90;;;;;;5072988;28;20532;-79
2021/04/27 09:41:25;;;;;;;10.27;6.73;;;12.80;99.90;;;;;;5075318;28;20172;-81
2021/04/27 09:43:52;;;;;;;13.73;8.30;;;12.80;99.90;;;;;;5074438;28;20173;-81
2021/04/27 09:46:21;;;;;;;16.10;8.17;;;12.70;99.90;;;;;;5075156;28;20160;-81
2021/04/27 09:48:54;;;;;;;11.37;8.13;;;12.80;99.90;;;;;;5074921;28;20222;-83
2021/04/27 09:51:23;;;;;;;16.47;7.53;;;13.00;99.90;;;;;;5073431;28;20279;-82
2021/04/27 09:53:55;;;;;;;11.70;7.90;;;13.20;99.90;;;;;;5074545;28;20255;-82
2021/04/27 09:56:42;;;;;;;19.13;7.90;;;13.30;99.90;;;;;;5074264;28;20277;-80
2021/04/27 09:59:09;;;;;;;12.73;7.97;;;13.30;99.90;;;;;;5074141;28;20640;-80
2021/04/27 10:01:35;;;;;;;12.60;8.33;;;13.30;99.90;;;;;;5073750;28;20241;-83
2021/04/27 10:04:02;;;;;;;13.87;8.30;;;13.40;99.90;;;;;;5074258;28;20199;-83
2021/04/27 10:06:28;;;;;;;11.40;7.27;;;13.60;99.90;;;;;;5073585;28;20176;-81
2021/04/27 10:08:56;;;;;;;8.87;6.63;;;13.80;1.00;;;;;;5073074;28;20168;-82
2021/04/27 10:11:24;;;;;;;12.23;6.87;;;13.90;1.00;;;;;;5073745;28;20168;-82
2021/04/27 10:13:50;;;;;;;10.70;7.37;;;13.90;1.00;;;;;;5072276;28;20193;-81
2021/04/27 10:16:16;;;;;;;12.90;7.77;;;13.80;1.00;;;;;;5062683;28;20681;-82
2021/04/27 10:18:42;;;;;;;11.20;7.43;;;14.00;1.00;;;;;;5054016;28;20514;-81
2021/04/27 10:21:11;;;;;;;9.87;7.67;;;14.40;1.00;;;;;;5052729;28;20200;-81
2021/04/27 10:23:39;;;;;;;11.47;8.07;;;14.20;1.00;;;;;;5053382;28;20626;-81
2021/04/27 10:26:05;;;;;;;14.33;7.90;;;14.20;1.00;;;;;;5053239;28;20169;-80
2021/04/27 10:29:02;;;;;;;8.93;7.27;;;14.20;1.00;;;;;;5053046;28;20201;-81
2021/04/27 10:31:30;;;;;;;8.50;7.27;;;14.20;1.00;;;;;;5053373;28;20180;-79
2021/04/27 10:34:06;;;;;;;11.10;7.67;;;14.10;1.00;;;;;;5053814;28;20169;-80
2021/04/27 10:36:37;;;;;;;12.40;7.60;;;14.00;1.00;;;;;;5062020;28;20200;-81
2021/04/27 10:39:08;;;;;;;13.30;7.90;;;14.10;1.00;;;;;;5072726;28;20180;-80
2021/04/27 10:41:42;;;;;;;14.80;8.40;;;14.30;1.00;;;;;;5073703;28;20195;-82
2021/04/27 10:44:08;;;;;;;12.63;7.40;;;14.50;1.00;;;;;;5072007;28;20179;-82
2021/04/27 10:46:35;;;;;;;11.90;7.70;;;14.70;1.00;;;;;;5072884;28;20161;-82
2021/04/27 10:49:16;;;;;;;11.30;7.17;;;14.70;1.00;;;;;;5071600;28;20176;-80
2021/04/27 10:51:42;;;;;;;10.60;7.60;;;14.70;1.00;;;;;;5073055;28;20172;-82
2021/04/27 10:54:15;;;;;;;9.13;7.13;;;14.70;1.00;;;;;;5072011;28;20168;-83
2021/04/27 10:56:54;;;;;;;12.20;6.57;;;14.90;1.00;;;;;;5073135;28;20223;-81
2021/04/27 10:59:21;;;;;;;9.30;6.40;;;14.90;1.00;;;;;;5073575;28;20173;-79
2021/04/27 11:01:49;;;;;;;10.30;6.90;;;14.90;1.00;;;;;;5071729;28;20263;-81
2021/04/27 11:04:30;;;;;;;10.03;7.00;;;15.10;1.00;;;;;;5072979;28;20612;-81
2021/04/27 11:07:29;;;;;;;11.17;8.00;;;15.10;1.00;;;;;;5073041;28;20276;-80
2021/04/27 11:10:01;;;;;;;9.47;6.80;;;15.20;1.00;;;;;;5072574;28;20162;-81
2021/04/27 11:12:33;;;;;;;11.37;7.40;;;15.00;1.00;;;;;;5073542;28;20187;-81
2021/04/27 11:15:04;;;;;;;11.33;7.17;;;15.20;1.00;;;;;;5072468;28;20716;-81
2021/04/27 11:17:35;;;;;;;12.13;7.57;;;15.20;1.00;;;;;;5072408;28;20204;-81
2021/04/27 11:20:03;;;;;;;24.43;8.20;;;15.30;1.00;;;;;;5072496;28;20197;-80
2021/04/27 11:22:32;;;;;;;12.00;7.40;;;15.20;1.00;;;;;;5071909;28;20168;-79
2021/04/27 11:25:03;;;;;;;12.77;7.87;;;15.20;1.00;;;;;;5072670;28;20176;-81
2021/04/27 11:27:32;;;;;;;9.77;7.67;;;15.20;1.00;;;;;;5070506;28;20665;-78
2021/04/27 11:30:10;;;;;;;10.80;7.57;;;15.30;1.00;;;;;;5072266;28;20168;-80
2021/04/27 11:32:39;;;;;;;9.47;7.83;;;15.20;1.00;;;;;;5071222;28;20203;-78
2021/04/27 11:35:16;;;;;;;13.17;7.67;;;15.40;1.00;;;;;;5070954;28;20238;-79
2021/04/27 11:37:46;;;;;;;8.57;7.03;;;15.70;1.00;;;;;;5072351;28;20176;-81
2021/04/27 11:40:27;;;;;;;10.83;6.87;;;15.90;1.00;;;;;;5072363;28;20184;-78
2021/04/27 11:43:08;;;;;;;10.40;7.03;;;15.80;1.00;;;;;;5071610;28;20474;-81
2021/04/27 11:45:41;;;;;;;10.30;6.57;;;15.80;1.00;;;;;;5071707;28;20177;-83
2021/04/27 11:48:12;;;;;;;7.83;7.03;;;16.00;1.00;;;;;;5071928;28;20175;-79
2021/04/27 11:50:38;;;;;;;7.87;6.63;;;16.10;1.00;;;;;;5064883;28;20654;-81
2021/04/27 11:53:11;;;;;;;10.43;7.23;;;16.10;1.00;;;;;;5065651;28;20188;-81
2021/04/27 11:55:41;;;;;;;7.03;6.10;;;16.20;1.00;;;;;;5071461;28;20659;-77
2021/04/27 11:58:17;;;;;;;7.57;5.90;;;16.10;1.00;;;;;;5074842;28;20167;-80
2021/04/27 12:00:57;;;;;;;8.27;6.33;;;16.10;1.00;;;;;;5071586;28;20176;-82
2021/04/27 12:03:35;;;;;;;9.17;6.37;;;16.30;1.00;;;;;;5071375;28;20162;-80
2021/04/27 12:06:07;;;;;;;10.57;6.07;;;16.30;1.00;;;;;;5070121;28;20250;-81
2021/04/27 12:08:37;;;;;;;10.73;6.60;;;16.40;1.00;;;;;;5058648;28;20644;-82
2021/04/27 12:11:15;;;;;;;9.73;6.60;;;16.80;1.00;;;;;;5050147;28;20172;-81
2021/04/27 12:13:51;;;;;;;11.00;7.03;;;16.60;1.00;;;;;;5051307;28;20664;-80
2021/04/27 12:16:20;;;;;;;8.87;6.20;;;16.60;1.00;;;;;;5051569;28;20579;-76
2021/04/27 12:18:55;;;;;;;9.43;6.43;;;16.60;1.00;;;;;;5051512;28;20180;-80
2021/04/27 12:21:31;;;;;;;9.87;6.90;;;16.50;1.00;;;;;;5064821;28;20199;-83
2021/04/27 12:24:26;;;;;;;10.97;6.90;;;16.50;1.00;;;;;;5070835;28;20166;-81
2021/04/27 12:27:00;;;;;;;10.17;6.90;;;16.30;1.00;;;;;;5051035;28;20169;-78
2021/04/27 12:29:29;;;;;;;8.77;6.50;;;16.30;1.00;;;;;;5051002;28;20173;-79
2021/04/27 12:31:56;;;;;;;8.93;6.77;;;16.20;1.00;;;;;;5050564;28;20186;-82
2021/04/27 12:34:22;;;;;;;8.07;6.33;;;16.40;1.00;;;;;;5051186;28;20202;-81
2021/04/27 12:36:49;;;;;;;10.87;6.73;;;16.40;1.00;;;;;;5061804;28;20215;-83
2021/04/27 12:39:26;;;;;;;10.83;6.90;;;16.40;1.00;;;;;;5074064;28;20171;-79
2021/04/27 12:41:54;;;;;;;11.77;6.63;;;16.50;1.00;;;;;;5077070;28;20611;-80
2021/04/27 12:44:35;;;;;;;8.30;6.57;;;16.50;1.00;;;;;;5075963;28;20172;-80
2021/04/27 12:47:18;;;;;;;7.93;5.90;;;16.50;1.00;;;;;;5073737;28;20202;-78
2021/04/27 12:49:58;;;;;;;10.53;6.23;;;16.80;1.00;;;;;;5070192;28;20589;-80
2021/04/27 12:52:25;;;;;;;9.93;6.63;;;16.90;1.00;;;;;;5069828;28;20164;-78
2021/04/27 12:54:59;;;;;;;8.57;6.90;;;17.00;1.00;;;;;;5070555;28;20213;-80
2021/04/27 12:57:28;;;;;;;10.27;6.20;;;17.20;1.00;;;;;;5070288;28;20172;-80
2021/04/27 13:00:01;;;;;;;13.27;6.40;;;17.30;1.00;;;;;;5056468;28;20169;-82
2021/04/27 13:02:27;;;;;;;12.00;6.37;;;17.40;1.00;;;;;;5050637;28;20248;-81